createdAt,value
2018-04-27T00:00:38.343Z,22.93
2018-04-27T00:03:06.647Z,19.00
2018-04-27T00:05:34.947Z,16.27
2018-04-27T00:08:03.231Z,24.83
2018-04-27T00:10:31.503Z,14.83
2018-04-27T00:12:59.790Z,14.77
2018-04-27T00:15:28.627Z,20.80
2018-04-27T00:17:56.878Z,20.47
2018-04-27T00:20:25.175Z,18.53
2018-04-27T00:22:53.455Z,21.00
2018-04-27T00:25:21.734Z,16.97
2018-04-27T00:27:49.943Z,21.00
2018-04-27T00:30:18.212Z,20.07
2018-04-27T00:32:46.555Z,18.23
2018-04-27T00:35:14.795Z,20.77
2018-04-27T00:37:43.090Z,25.37
2018-04-27T00:40:11.358Z,27.57
2018-04-27T00:42:39.659Z,26.93
2018-04-27T00:45:07.969Z,25.00
2018-04-27T00:47:36.246Z,24.97
2018-04-27T00:50:04.555Z,21.67
2018-04-27T00:52:41.717Z,24.30
2018-04-27T00:55:10.028Z,27.93
2018-04-27T00:57:38.305Z,23.03
2018-04-27T01:00:06.622Z,23.23
2018-04-27T01:02:34.879Z,18.13
2018-04-27T01:05:03.179Z,19.83
2018-04-27T01:07:31.574Z,24.03
2018-04-27T01:09:59.770Z,23.47
2018-04-27T01:12:28.044Z,22.37
2018-04-27T01:14:56.994Z,32.67
2018-04-27T01:17:25.262Z,25.37
2018-04-27T01:19:53.518Z,30.77
2018-04-27T01:22:21.806Z,25.93
2018-04-27T01:24:50.106Z,19.93
2018-04-27T01:27:18.382Z,23.03
2018-04-27T01:29:46.679Z,24.10
2018-04-27T01:32:14.967Z,22.80
2018-04-27T01:34:43.479Z,27.30
2018-04-27T01:37:11.787Z,25.07
2018-04-27T01:39:40.019Z,23.80
2018-04-27T01:42:08.231Z,29.47
2018-04-27T01:44:36.516Z,25.33
2018-04-27T01:47:04.808Z,24.27
2018-04-27T01:49:33.083Z,27.63
2018-04-27T01:52:01.387Z,33.60
2018-04-27T01:54:29.664Z,29.33
2018-04-27T01:56:57.973Z,31.30
2018-04-27T01:59:26.263Z,21.90
2018-04-27T02:01:54.527Z,33.20
2018-04-27T02:04:22.835Z,21.97
2018-04-27T02:06:51.107Z,31.23
2018-04-27T02:09:19.390Z,32.43
2018-04-27T02:11:47.754Z,22.00
2018-04-27T02:14:16.079Z,26.83
2018-04-27T02:16:44.375Z,21.00
2018-04-27T02:19:12.643Z,22.83
2018-04-27T02:21:40.950Z,27.33
2018-04-27T02:24:09.228Z,20.30
2018-04-27T02:26:37.523Z,27.97
2018-04-27T02:29:05.822Z,29.23
2018-04-27T02:31:34.095Z,33.90
2018-04-27T02:34:02.395Z,28.80
2018-04-27T02:36:30.920Z,24.13
2018-04-27T02:38:59.189Z,29.57
2018-04-27T02:41:27.467Z,29.80
2018-04-27T02:43:55.831Z,30.23
2018-04-27T02:46:24.043Z,27.80
2018-04-27T02:48:52.314Z,33.53
2018-04-27T02:51:20.647Z,30.53
2018-04-27T02:53:48.939Z,32.33
2018-04-27T02:56:17.208Z,27.67
2018-04-27T02:58:45.497Z,27.57
2018-04-27T03:01:13.762Z,37.33
2018-04-27T03:03:42.088Z,26.33
2018-04-27T03:06:10.394Z,23.40
2018-04-27T03:08:38.652Z,25.57
2018-04-27T03:11:06.950Z,20.93
2018-04-27T03:13:35.236Z,42.40
2018-04-27T03:16:03.576Z,32.10
2018-04-27T03:18:31.802Z,24.20
2018-04-27T03:21:00.071Z,28.80
2018-04-27T03:23:28.362Z,35.80
2018-04-27T03:25:56.682Z,30.80
2018-04-27T03:28:24.942Z,26.40
2018-04-27T03:30:53.247Z,26.17
2018-04-27T03:33:21.534Z,23.93
2018-04-27T03:35:49.807Z,28.00
2018-04-27T03:38:18.110Z,33.70
2018-04-27T03:40:46.386Z,25.30
2018-04-27T03:43:14.686Z,29.47
2018-04-27T03:45:42.954Z,37.60
2018-04-27T03:48:11.150Z,24.07
2018-04-27T03:50:39.460Z,38.70
2018-04-27T03:53:07.739Z,24.70
2018-04-27T03:55:36.031Z,26.17
2018-04-27T03:58:04.322Z,33.33
2018-04-27T04:01:43.448Z,25.43
2018-04-27T04:05:23.730Z,21.47
2018-04-27T04:07:51.981Z,26.07
2018-04-27T04:10:20.222Z,21.47
2018-04-27T04:12:48.527Z,27.33
2018-04-27T04:15:16.710Z,31.43
2018-04-27T04:17:44.982Z,23.03
2018-04-27T04:20:13.283Z,29.00
2018-04-27T04:22:41.568Z,28.50
2018-04-27T04:25:09.855Z,26.90
2018-04-27T04:27:38.150Z,28.37
2018-04-27T04:30:06.439Z,24.17
2018-04-27T04:32:34.750Z,26.70
2018-04-27T04:35:03.067Z,29.77
2018-04-27T04:37:31.306Z,29.63
2018-04-27T04:39:59.599Z,29.43
2018-04-27T04:42:27.882Z,27.63
2018-04-27T04:44:56.164Z,33.70
2018-04-27T04:47:24.475Z,30.13
2018-04-27T04:49:52.794Z,26.90
2018-04-27T04:52:21.287Z,29.37
2018-04-27T04:54:49.543Z,25.90
2018-04-27T04:57:17.822Z,28.27
2018-04-27T04:59:46.095Z,25.73
2018-04-27T05:02:14.379Z,21.87
2018-04-27T05:04:43.567Z,30.33
2018-04-27T05:07:11.791Z,28.73
2018-04-27T05:09:40.087Z,31.07
2018-04-27T05:12:08.361Z,22.60
2018-04-27T05:14:36.571Z,28.20
2018-04-27T05:17:04.843Z,40.47
2018-04-27T05:19:33.158Z,26.67
2018-04-27T05:22:01.423Z,28.43
2018-04-27T05:24:29.857Z,23.07
2018-04-27T05:26:58.118Z,23.87
2018-04-27T05:29:26.655Z,33.20
2018-04-27T05:31:55.452Z,37.50
2018-04-27T05:34:23.667Z,33.53
2018-04-27T05:36:51.991Z,33.20
2018-04-27T05:39:20.657Z,29.67
2018-04-27T05:41:48.949Z,27.33
2018-04-27T05:44:17.319Z,34.70
2018-04-27T05:46:45.562Z,35.23
2018-04-27T05:49:13.883Z,32.33
2018-04-27T05:51:42.173Z,36.10
2018-04-27T05:54:10.431Z,31.50
2018-04-27T05:56:38.730Z,34.00
2018-04-27T05:59:06.939Z,31.37
2018-04-27T06:01:35.150Z,35.53
2018-04-27T06:04:13.543Z,33.67
2018-04-27T06:06:42.075Z,23.30
2018-04-27T06:09:10.586Z,18.13
2018-04-27T06:11:39.510Z,20.17
2018-04-27T06:14:07.746Z,18.33
2018-04-27T06:16:35.928Z,28.47
2018-04-27T06:19:04.377Z,25.20
2018-04-27T06:21:32.643Z,31.33
2018-04-27T06:24:00.942Z,40.03
2018-04-27T06:26:29.155Z,37.00
2018-04-27T06:28:57.355Z,22.80
2018-04-27T06:31:25.550Z,23.90
2018-04-27T06:33:53.766Z,28.63
2018-04-27T06:36:21.972Z,24.00
2018-04-27T06:38:50.219Z,24.77
2018-04-27T06:41:18.527Z,25.97
2018-04-27T06:43:46.788Z,29.90
2018-04-27T06:46:15.090Z,33.23
2018-04-27T06:48:43.443Z,25.13
2018-04-27T06:51:11.795Z,26.60
2018-04-27T06:53:40.091Z,26.37
2018-04-27T06:56:08.411Z,23.03
2018-04-27T06:58:36.829Z,26.50
2018-04-27T07:01:05.074Z,32.23
2018-04-27T07:03:33.322Z,33.63
2018-04-27T07:06:01.750Z,27.93
2018-04-27T07:08:30.063Z,24.63
2018-04-27T07:10:58.319Z,32.07
2018-04-27T07:13:26.555Z,31.10
2018-04-27T07:15:54.806Z,29.17
2018-04-27T07:18:23.014Z,33.47
2018-04-27T07:20:51.271Z,30.00
2018-04-27T07:23:19.486Z,22.30
2018-04-27T07:25:47.783Z,22.63
2018-04-27T07:28:16.072Z,34.50
2018-04-27T07:30:44.277Z,23.60
2018-04-27T07:33:12.484Z,21.73
2018-04-27T07:35:40.723Z,23.10
2018-04-27T07:38:08.998Z,19.80
2018-04-27T07:40:37.264Z,27.20
2018-04-27T07:43:05.531Z,22.37
2018-04-27T07:45:33.755Z,17.53
2018-04-27T07:48:02.077Z,25.77
2018-04-27T07:50:30.378Z,22.10
2018-04-27T07:52:58.646Z,15.10
2018-04-27T07:55:26.953Z,11.50
2018-04-27T07:57:55.159Z,19.27
2018-04-27T08:00:23.687Z,10.57
2018-04-27T08:02:53.722Z,13.77
2018-04-27T08:05:22.984Z,13.13
2018-04-27T08:07:51.511Z,9.47
2018-04-27T08:10:19.970Z,10.03
2018-04-27T08:12:48.234Z,15.17
2018-04-27T08:15:17.003Z,17.27
2018-04-27T08:17:45.656Z,12.73
2018-04-27T08:20:15.263Z,9.23
2018-04-27T08:22:44.367Z,9.70
2018-04-27T08:25:12.864Z,8.00
2018-04-27T08:27:41.136Z,9.60
2018-04-27T08:30:09.375Z,15.00
2018-04-27T08:32:37.605Z,9.67
2018-04-27T08:35:05.838Z,10.80
2018-04-27T08:37:34.052Z,13.63
2018-04-27T08:40:02.267Z,7.60
2018-04-27T08:42:30.543Z,8.97
2018-04-27T08:44:59.515Z,11.83
2018-04-27T08:47:28.169Z,13.80
2018-04-27T08:49:56.442Z,8.20
2018-04-27T08:52:24.671Z,13.07
2018-04-27T08:54:52.952Z,14.63
2018-04-27T08:57:21.573Z,6.20
2018-04-27T08:59:50.262Z,9.93
2018-04-27T09:02:18.901Z,12.90
2018-04-27T09:04:48.711Z,6.97
2018-04-27T09:07:17.579Z,17.73
2018-04-27T09:09:46.667Z,5.90
2018-04-27T09:12:16.416Z,9.83
2018-04-27T09:14:45.295Z,8.40
2018-04-27T09:17:14.365Z,33.67
2018-04-27T09:19:42.591Z,9.67
2018-04-27T09:22:10.811Z,14.63
2018-04-27T09:24:39.789Z,10.50
2018-04-27T09:27:08.007Z,8.70
2018-04-27T09:29:36.337Z,9.53
2018-04-27T09:32:04.631Z,16.90
2018-04-27T09:34:33.254Z,12.10
2018-04-27T09:37:01.483Z,9.70
2018-04-27T09:39:29.806Z,7.40
2018-04-27T09:41:58.059Z,10.43
2018-04-27T09:44:26.507Z,9.23
2018-04-27T09:46:54.768Z,12.93
2018-04-27T09:49:22.996Z,12.00
2018-04-27T09:51:51.218Z,6.97
2018-04-27T09:54:19.441Z,10.77
2018-04-27T09:56:47.680Z,13.00
2018-04-27T09:59:15.903Z,11.33
2018-04-27T10:01:44.131Z,13.57
2018-04-27T10:04:12.326Z,11.43
2018-04-27T10:06:40.551Z,12.13
2018-04-27T10:09:08.787Z,12.93
2018-04-27T10:11:37.013Z,11.43
2018-04-27T10:14:05.330Z,17.70
2018-04-27T10:16:33.590Z,8.93
2018-04-27T10:19:01.899Z,13.23
2018-04-27T10:21:30.103Z,8.50
2018-04-27T10:23:58.332Z,7.13
2018-04-27T10:26:26.802Z,15.63
2018-04-27T10:28:55.011Z,11.43
2018-04-27T10:31:23.221Z,10.37
2018-04-27T10:33:51.430Z,8.80
2018-04-27T10:36:19.654Z,15.00
2018-04-27T10:38:47.879Z,23.13
2018-04-27T10:41:16.175Z,9.47
2018-04-27T10:43:44.374Z,8.20
2018-04-27T10:46:12.583Z,15.43
2018-04-27T10:48:40.844Z,13.03
2018-04-27T10:51:09.078Z,14.30
2018-04-27T10:53:37.323Z,12.47
2018-04-27T10:56:05.685Z,10.30
2018-04-27T10:58:33.867Z,12.10
2018-04-27T11:01:02.212Z,13.73
2018-04-27T11:03:30.531Z,12.57
2018-04-27T11:05:58.820Z,24.03
2018-04-27T11:08:27.068Z,11.43
2018-04-27T11:10:55.326Z,7.90
2018-04-27T11:13:23.598Z,9.50
2018-04-27T11:15:51.803Z,13.30
2018-04-27T11:18:20.059Z,12.47
2018-04-27T11:20:48.299Z,8.23
2018-04-27T11:23:16.519Z,9.40
2018-04-27T11:25:44.756Z,14.20
2018-04-27T11:28:12.987Z,15.63
2018-04-27T11:30:41.192Z,13.70
2018-04-27T11:33:09.423Z,14.27
2018-04-27T11:35:37.659Z,20.13
2018-04-27T11:38:05.887Z,11.67
2018-04-27T11:40:34.078Z,11.50
2018-04-27T11:43:02.387Z,11.07
2018-04-27T11:45:30.675Z,18.10
2018-04-27T11:47:58.927Z,15.00
2018-04-27T11:50:27.179Z,13.03
2018-04-27T11:52:55.422Z,15.20
2018-04-27T11:55:23.658Z,19.50
2018-04-27T11:57:52.040Z,9.53
2018-04-27T12:00:21.198Z,10.57
2018-04-27T12:02:49.430Z,17.17
2018-04-27T12:05:17.723Z,14.40
2018-04-27T12:07:47.140Z,15.83
2018-04-27T12:10:15.375Z,14.70
2018-04-27T12:12:43.627Z,9.97
2018-04-27T12:15:11.877Z,11.57
2018-04-27T12:17:40.333Z,17.07
2018-04-27T12:20:08.487Z,8.23
2018-04-27T12:22:36.730Z,14.40
2018-04-27T12:25:04.956Z,11.37
2018-04-27T12:27:33.174Z,12.47
2018-04-27T12:30:01.436Z,12.17
2018-04-27T12:32:30.013Z,15.60
2018-04-27T12:34:58.213Z,15.17
2018-04-27T12:37:26.463Z,15.50
2018-04-27T12:39:54.730Z,16.00
2018-04-27T12:42:22.959Z,17.00
2018-04-27T12:44:51.198Z,13.27
2018-04-27T12:47:19.466Z,22.83
2018-04-27T12:49:47.743Z,13.90
2018-04-27T12:52:16.095Z,12.67
2018-04-27T12:54:44.355Z,18.40
2018-04-27T12:57:12.608Z,11.73
2018-04-27T12:59:55.495Z,15.03
2018-04-27T13:02:23.795Z,15.50
2018-04-27T13:04:52.066Z,13.97
2018-04-27T13:07:20.303Z,17.30
2018-04-27T13:09:48.620Z,18.00
2018-04-27T13:12:16.914Z,11.57
2018-04-27T13:14:45.138Z,12.13
2018-04-27T13:17:13.475Z,14.70
2018-04-27T13:19:41.734Z,12.97
2018-04-27T13:22:09.935Z,16.13
2018-04-27T13:24:38.165Z,17.20
2018-04-27T13:27:06.436Z,11.60
2018-04-27T13:29:34.639Z,13.10
2018-04-27T13:32:02.850Z,13.47
2018-04-27T13:34:31.219Z,21.30
2018-04-27T13:36:59.423Z,12.93
2018-04-27T13:39:27.630Z,10.10
2018-04-27T13:41:55.828Z,12.80
2018-04-27T13:44:24.031Z,20.43
2018-04-27T13:46:52.265Z,12.43
2018-04-27T13:49:20.447Z,15.67
2018-04-27T13:51:48.777Z,14.63
2018-04-27T13:54:17.142Z,16.63
2018-04-27T13:56:45.390Z,17.10
2018-04-27T13:59:13.631Z,10.80
2018-04-27T14:01:42.060Z,14.23
2018-04-27T14:04:10.328Z,22.07
2018-04-27T14:06:38.571Z,11.43
2018-04-27T14:09:06.853Z,14.53
2018-04-27T14:11:35.098Z,21.20
2018-04-27T14:14:03.407Z,16.13
2018-04-27T14:16:31.580Z,16.33
2018-04-27T14:18:59.812Z,18.63
2018-04-27T14:21:28.136Z,14.47
2018-04-27T14:23:56.266Z,15.37
2018-04-27T14:26:24.487Z,13.33
2018-04-27T14:28:52.694Z,17.83
2018-04-27T14:31:20.889Z,13.63
2018-04-27T14:33:49.230Z,19.13
2018-04-27T14:36:17.462Z,13.90
2018-04-27T14:38:45.767Z,13.90
2018-04-27T14:41:14.027Z,10.93
2018-04-27T14:43:42.238Z,13.10
2018-04-27T14:46:10.452Z,11.10
2018-04-27T14:48:38.718Z,11.53
2018-04-27T14:51:07.015Z,12.57
2018-04-27T14:53:35.220Z,12.07
2018-04-27T14:56:03.520Z,14.10
2018-04-27T14:58:31.998Z,12.50
2018-04-27T15:01:00.246Z,12.33
2018-04-27T15:03:28.499Z,10.00
2018-04-27T15:05:56.782Z,13.53
2018-04-27T15:08:24.955Z,9.60
2018-04-27T15:10:53.209Z,8.80
2018-04-27T15:13:21.470Z,12.30
2018-04-27T15:15:49.738Z,12.20
2018-04-27T15:18:18.011Z,8.43
2018-04-27T15:20:46.234Z,9.13
2018-04-27T15:23:14.495Z,10.90
2018-04-27T15:25:42.783Z,17.43
2018-04-27T15:28:11.067Z,15.67
2018-04-27T15:30:39.309Z,7.73
2018-04-27T15:33:07.536Z,9.47
2018-04-27T15:35:35.824Z,15.03
2018-04-27T15:38:04.127Z,11.00
2018-04-27T15:40:32.360Z,11.03
2018-04-27T15:43:00.651Z,17.67
2018-04-27T15:45:28.907Z,11.03
2018-04-27T15:47:57.143Z,7.70
2018-04-27T15:50:25.455Z,16.00
2018-04-27T15:52:53.756Z,9.87
2018-04-27T15:55:21.955Z,11.07
2018-04-27T15:57:50.175Z,7.70
2018-04-27T16:00:18.426Z,14.53
2018-04-27T16:02:46.654Z,15.60
2018-04-27T16:05:14.898Z,14.17
2018-04-27T16:07:43.124Z,9.73
2018-04-27T16:10:11.339Z,11.07
2018-04-27T16:12:39.594Z,10.73
2018-04-27T16:15:07.875Z,11.77
2018-04-27T16:17:36.180Z,8.77
2018-04-27T16:20:04.483Z,8.53
2018-04-27T16:22:32.803Z,8.23
2018-04-27T16:25:01.042Z,8.80
2018-04-27T16:27:29.323Z,5.87
2018-04-27T16:29:57.553Z,17.13
2018-04-27T16:32:25.788Z,19.10
2018-04-27T16:34:54.132Z,10.30
2018-04-27T16:37:22.378Z,7.17
2018-04-27T16:39:50.623Z,7.30
2018-04-27T16:42:18.847Z,9.60
2018-04-27T16:44:47.052Z,9.57
2018-04-27T16:47:15.343Z,11.33
2018-04-27T16:49:43.551Z,9.67
2018-04-27T16:52:11.799Z,11.53
2018-04-27T16:54:40.062Z,10.00
2018-04-27T16:57:08.414Z,15.00
2018-04-27T16:59:36.691Z,10.87
2018-04-27T17:02:04.978Z,24.20
2018-04-27T17:04:33.266Z,14.97
2018-04-27T17:07:01.577Z,17.70
2018-04-27T17:09:29.854Z,20.40
2018-04-27T17:11:58.111Z,11.77
2018-04-27T17:14:26.415Z,19.03
2018-04-27T17:16:54.686Z,21.00
2018-04-27T17:19:23.010Z,15.03
2018-04-27T17:21:51.297Z,27.93
2018-04-27T17:24:19.601Z,25.20
2018-04-27T17:26:47.886Z,41.43
2018-04-27T17:29:16.163Z,32.53
2018-04-27T17:31:44.403Z,13.80
2018-04-27T17:34:12.760Z,24.23
2018-04-27T17:36:41.038Z,39.60
2018-04-27T17:39:09.343Z,47.93
2018-04-27T17:41:37.562Z,34.27
2018-04-27T17:44:05.795Z,11.23
2018-04-27T17:46:34.022Z,20.07
2018-04-27T17:49:02.254Z,19.80
2018-04-27T17:51:30.535Z,19.90
2018-04-27T17:53:58.723Z,11.17
2018-04-27T17:56:27.046Z,15.13
2018-04-27T17:58:55.294Z,12.23
2018-04-27T18:01:23.603Z,14.83
2018-04-27T18:03:53.065Z,9.83
2018-04-27T18:06:21.410Z,9.60
2018-04-27T18:08:49.664Z,8.13
2018-04-27T18:11:18.011Z,5.83
2018-04-27T18:13:46.383Z,10.17
2018-04-27T18:16:14.679Z,5.80
2018-04-27T18:18:42.910Z,8.23
2018-04-27T18:21:12.161Z,6.23
2018-04-27T18:23:40.467Z,6.60
2018-04-27T18:26:08.704Z,6.67
2018-04-27T18:28:37.008Z,4.90
2018-04-27T18:31:05.306Z,7.57
2018-04-27T18:33:33.561Z,6.57
2018-04-27T18:36:01.922Z,5.23
2018-04-27T18:38:30.170Z,8.70
2018-04-27T18:40:58.487Z,11.43
2018-04-27T18:43:26.759Z,12.23
2018-04-27T18:45:55.059Z,9.93
2018-04-27T18:48:23.355Z,12.83
2018-04-27T18:50:51.723Z,14.93
2018-04-27T18:53:20.712Z,8.87
2018-04-27T18:55:49.048Z,7.53
2018-04-27T18:58:17.638Z,10.10
2018-04-27T19:00:46.140Z,9.63
2018-04-27T19:03:14.429Z,6.40
2018-04-27T19:05:42.729Z,8.63
2018-04-27T19:08:10.971Z,7.37
2018-04-27T19:10:39.286Z,11.53
2018-04-27T19:13:07.603Z,6.67
2018-04-27T19:15:35.902Z,12.37
2018-04-27T19:18:04.575Z,14.50
2018-04-27T19:20:33.041Z,7.07
2018-04-27T19:23:01.356Z,5.57
2018-04-27T19:25:29.604Z,10.20
2018-04-27T19:27:57.919Z,6.53
2018-04-27T19:30:26.243Z,9.70
2018-04-27T19:32:54.584Z,5.07
2018-04-27T19:35:22.874Z,7.60
2018-04-27T19:37:51.227Z,8.87
2018-04-27T19:40:19.561Z,7.53
2018-04-27T19:42:47.899Z,9.97
2018-04-27T19:45:16.158Z,4.50
2018-04-27T19:47:44.422Z,5.40
2018-04-27T19:50:12.699Z,4.87
2018-04-27T19:52:41.044Z,5.67
2018-04-27T19:55:09.283Z,6.13
2018-04-27T19:57:37.695Z,4.70
2018-04-27T20:00:06.012Z,11.77
2018-04-27T20:02:34.248Z,7.83
2018-04-27T20:05:03.119Z,5.80
2018-04-27T20:07:31.455Z,4.90
2018-04-27T20:09:59.847Z,8.57
2018-04-27T20:12:28.334Z,4.90
2018-04-27T20:14:56.636Z,5.20
2018-04-27T20:17:33.786Z,7.00
2018-04-27T20:20:02.196Z,6.10
2018-04-27T20:22:30.532Z,6.93
2018-04-27T20:24:58.842Z,7.67
2018-04-27T20:27:27.913Z,13.33
2018-04-27T20:29:56.158Z,5.20
2018-04-27T20:32:24.483Z,5.30
2018-04-27T20:34:52.998Z,8.03
2018-04-27T20:37:21.271Z,19.73
2018-04-27T20:39:49.559Z,6.20
2018-04-27T20:42:17.850Z,9.93
2018-04-27T20:44:46.118Z,6.77
2018-04-27T20:47:14.771Z,5.57
2018-04-27T20:49:43.073Z,10.07
2018-04-27T20:52:11.435Z,8.30
2018-04-27T20:54:39.812Z,10.90
2018-04-27T20:57:08.094Z,14.57
2018-04-27T20:59:36.398Z,43.50
2018-04-27T21:02:04.730Z,8.13
2018-04-27T21:04:32.959Z,5.37
2018-04-27T21:07:01.315Z,5.60
2018-04-27T21:09:29.662Z,7.17
2018-04-27T21:11:57.910Z,5.17
2018-04-27T21:14:26.271Z,10.10
2018-04-27T21:16:54.600Z,11.83
2018-04-27T21:19:22.864Z,7.67
2018-04-27T21:21:51.180Z,11.40
2018-04-27T21:24:19.456Z,20.77
2018-04-27T21:26:47.834Z,7.50
2018-04-27T21:29:16.562Z,5.97
2018-04-27T21:31:44.848Z,6.07
2018-04-27T21:34:13.199Z,9.20
2018-04-27T21:36:41.603Z,6.13
2018-04-27T21:39:10.056Z,25.87
2018-04-27T21:41:40.664Z,7.77
2018-04-27T21:44:09.005Z,8.13
2018-04-27T21:46:37.773Z,5.90
2018-04-27T21:49:06.272Z,11.03
2018-04-27T21:51:34.572Z,9.70
2018-04-27T21:54:03.675Z,7.70
2018-04-27T21:56:31.922Z,17.47
2018-04-27T21:59:00.792Z,13.03
2018-04-27T22:01:29.019Z,8.13
2018-04-27T22:04:00.966Z,6.33
2018-04-27T22:06:31.435Z,12.80
2018-04-27T22:08:59.710Z,9.77
2018-04-27T22:11:29.160Z,5.97
2018-04-27T22:13:57.402Z,5.73
2018-04-27T22:16:25.739Z,8.20
2018-04-27T22:18:54.010Z,7.80
2018-04-27T22:21:22.306Z,8.13
2018-04-27T22:23:50.571Z,9.50
2018-04-27T22:26:18.882Z,6.00
2018-04-27T22:28:47.204Z,5.80
2018-04-27T22:31:15.447Z,9.93
2018-04-27T22:33:43.778Z,7.53
2018-04-27T22:36:12.086Z,8.43
2018-04-27T22:38:40.456Z,11.70
2018-04-27T22:41:08.755Z,11.10
2018-04-27T22:43:37.028Z,9.10
2018-04-27T22:46:05.303Z,6.60
2018-04-27T22:48:34.397Z,6.27
2018-04-27T22:51:02.715Z,5.87
2018-04-27T22:53:30.987Z,6.33
2018-04-27T22:55:59.296Z,6.10
2018-04-27T22:58:27.979Z,5.10
2018-04-27T23:00:56.475Z,9.53
2018-04-27T23:03:25.125Z,12.10
2018-04-27T23:05:53.902Z,8.03
2018-04-27T23:08:22.227Z,8.70
2018-04-27T23:10:50.575Z,8.93
2018-04-27T23:13:18.887Z,7.70
2018-04-27T23:15:47.216Z,6.47
2018-04-27T23:18:15.552Z,11.83
2018-04-27T23:20:43.998Z,11.97
2018-04-27T23:23:12.287Z,6.27
2018-04-27T23:25:40.641Z,7.97
2018-04-27T23:28:09.259Z,9.07
2018-04-27T23:30:37.611Z,6.17
2018-04-27T23:33:06.015Z,7.50
2018-04-27T23:35:34.386Z,10.93
2018-04-27T23:38:03.350Z,8.17
2018-04-27T23:40:31.643Z,6.33
2018-04-27T23:42:59.952Z,5.60
2018-04-27T23:45:28.245Z,13.13
2018-04-27T23:47:56.751Z,7.67
2018-04-27T23:50:25.103Z,6.00
2018-04-27T23:52:53.371Z,7.00
2018-04-27T23:55:21.718Z,17.60
2018-04-27T23:57:50.107Z,5.50
